sensor_id;sensor_type;location;lat;lon;timestamp;P1;durP1;ratioP1;P2;durP2;ratioP2
3022;SDS011;1521;53.584;9.938;2023-09-19T00:01:32;2.73;;;2.43;;
3022;SDS011;1521;53.584;9.938;2023-09-19T00:03:58;5.93;;;2.40;;
3022;SDS011;1521;53.584;9.938;2023-09-19T00:06:25;7.63;;;2.63;;
3022;SDS011;1521;53.584;9.938;2023-09-19T00:08:53;4.10;;;2.60;;
3022;SDS011;1521;53.584;9.938;2023-09-19T00:11:19;4.60;;;2.20;;
3022;SDS011;1521;53.584;9.938;2023-09-19T00:13:47;4.17;;;2.20;;
3022;SDS011;1521;53.584;9.938;2023-09-19T00:16:14;3.50;;;2.40;;
3022;SDS011;1521;53.584;9.938;2023-09-19T00:18:40;3.43;;;2.30;;
3022;SDS011;1521;53.584;9.938;2023-09-19T00:21:05;7.03;;;3.10;;
3022;SDS011;1521;53.584;9.938;2023-09-19T00:23:32;2.20;;;1.93;;
3022;SDS011;1521;53.584;9.938;2023-09-19T00:25:58;3.00;;;2.40;;
3022;SDS011;1521;53.584;9.938;2023-09-19T00:28:24;6.60;;;2.93;;
3022;SDS011;1521;53.584;9.938;2023-09-19T00:30:50;3.60;;;2.53;;
3022;SDS011;1521;53.584;9.938;2023-09-19T00:33:15;3.60;;;2.70;;
3022;SDS011;1521;53.584;9.938;2023-09-19T00:35:51;5.40;;;2.13;;
3022;SDS011;1521;53.584;9.938;2023-09-19T00:38:18;7.00;;;2.60;;
3022;SDS011;1521;53.584;9.938;2023-09-19T00:40:47;3.20;;;2.40;;
3022;SDS011;1521;53.584;9.938;2023-09-19T00:43:14;2.90;;;2.60;;
3022;SDS011;1521;53.584;9.938;2023-09-19T00:45:42;7.53;;;2.90;;
3022;SDS011;1521;53.584;9.938;2023-09-19T00:48:09;5.83;;;2.77;;
3022;SDS011;1521;53.584;9.938;2023-09-19T00:50:35;6.70;;;3.03;;
3022;SDS011;1521;53.584;9.938;2023-09-19T00:53:02;5.00;;;3.07;;
3022;SDS011;1521;53.584;9.938;2023-09-19T00:55:34;8.83;;;3.37;;
3022;SDS011;1521;53.584;9.938;2023-09-19T00:58:02;11.03;;;2.90;;
3022;SDS011;1521;53.584;9.938;2023-09-19T01:00:28;5.40;;;3.23;;
3022;SDS011;1521;53.584;9.938;2023-09-19T01:02:54;6.37;;;3.17;;
3022;SDS011;1521;53.584;9.938;2023-09-19T01:05:20;7.30;;;2.97;;
3022;SDS011;1521;53.584;9.938;2023-09-19T01:07:46;6.30;;;2.90;;
3022;SDS011;1521;53.584;9.938;2023-09-19T01:10:15;9.07;;;3.30;;
3022;SDS011;1521;53.584;9.938;2023-09-19T01:24:15;4.67;;;3.70;;
3022;SDS011;1521;53.584;9.938;2023-09-19T01:29:42;5.87;;;3.47;;
3022;SDS011;1521;53.584;9.938;2023-09-19T01:32:11;5.50;;;3.30;;
3022;SDS011;1521;53.584;9.938;2023-09-19T01:34:47;5.83;;;3.60;;
3022;SDS011;1521;53.584;9.938;2023-09-19T01:37:14;9.00;;;3.50;;
3022;SDS011;1521;53.584;9.938;2023-09-19T01:39:44;9.57;;;3.30;;
3022;SDS011;1521;53.584;9.938;2023-09-19T01:42:19;11.20;;;2.97;;
3022;SDS011;1521;53.584;9.938;2023-09-19T01:44:57;5.63;;;2.80;;
3022;SDS011;1521;53.584;9.938;2023-09-19T01:47:34;5.90;;;2.50;;
3022;SDS011;1521;53.584;9.938;2023-09-19T01:50:22;4.83;;;2.47;;
3022;SDS011;1521;53.584;9.938;2023-09-19T01:53:05;6.73;;;2.60;;
3022;SDS011;1521;53.584;9.938;2023-09-19T01:55:41;6.30;;;2.70;;
3022;SDS011;1521;53.584;9.938;2023-09-19T01:58:16;9.27;;;2.20;;
3022;SDS011;1521;53.584;9.938;2023-09-19T02:00:44;8.20;;;2.27;;
3022;SDS011;1521;53.584;9.938;2023-09-19T02:03:13;5.73;;;2.40;;
3022;SDS011;1521;53.584;9.938;2023-09-19T02:05:39;6.50;;;2.70;;
3022;SDS011;1521;53.584;9.938;2023-09-19T02:08:05;5.27;;;2.43;;
3022;SDS011;1521;53.584;9.938;2023-09-19T02:10:31;3.93;;;2.33;;
3022;SDS011;1521;53.584;9.938;2023-09-19T02:12:56;4.87;;;2.50;;
3022;SDS011;1521;53.584;9.938;2023-09-19T02:15:22;4.60;;;2.70;;
3022;SDS011;1521;53.584;9.938;2023-09-19T02:17:47;7.73;;;3.50;;
3022;SDS011;1521;53.584;9.938;2023-09-19T02:20:13;7.00;;;3.10;;
3022;SDS011;1521;53.584;9.938;2023-09-19T02:22:40;7.53;;;3.53;;
3022;SDS011;1521;53.584;9.938;2023-09-19T02:25:06;5.77;;;3.67;;
3022;SDS011;1521;53.584;9.938;2023-09-19T02:27:33;3.67;;;3.20;;
3022;SDS011;1521;53.584;9.938;2023-09-19T02:29:59;8.40;;;4.57;;
3022;SDS011;1521;53.584;9.938;2023-09-19T02:32:28;7.13;;;4.50;;
3022;SDS011;1521;53.584;9.938;2023-09-19T02:34:56;7.00;;;4.43;;
3022;SDS011;1521;53.584;9.938;2023-09-19T02:37:23;10.60;;;4.30;;
3022;SDS011;1521;53.584;9.938;2023-09-19T02:39:48;10.53;;;4.50;;
3022;SDS011;1521;53.584;9.938;2023-09-19T02:42:14;8.73;;;5.17;;
3022;SDS011;1521;53.584;9.938;2023-09-19T02:44:39;8.30;;;4.60;;
3022;SDS011;1521;53.584;9.938;2023-09-19T02:47:05;10.80;;;4.50;;
3022;SDS011;1521;53.584;9.938;2023-09-19T02:49:31;7.97;;;4.33;;
3022;SDS011;1521;53.584;9.938;2023-09-19T02:51:57;8.60;;;4.67;;
3022;SDS011;1521;53.584;9.938;2023-09-19T02:54:24;10.73;;;4.50;;
3022;SDS011;1521;53.584;9.938;2023-09-19T02:56:50;8.13;;;4.17;;
3022;SDS011;1521;53.584;9.938;2023-09-19T02:59:15;11.20;;;3.60;;
3022;SDS011;1521;53.584;9.938;2023-09-19T03:01:44;6.13;;;3.73;;
3022;SDS011;1521;53.584;9.938;2023-09-19T03:04:13;16.43;;;3.90;;
3022;SDS011;1521;53.584;9.938;2023-09-19T03:06:41;9.10;;;3.47;;
3022;SDS011;1521;53.584;9.938;2023-09-19T03:09:07;6.80;;;3.17;;
3022;SDS011;1521;53.584;9.938;2023-09-19T03:11:36;8.70;;;2.47;;
3022;SDS011;1521;53.584;9.938;2023-09-19T03:14:02;6.93;;;3.00;;
3022;SDS011;1521;53.584;9.938;2023-09-19T03:16:29;9.23;;;3.50;;
3022;SDS011;1521;53.584;9.938;2023-09-19T03:18:54;10.17;;;2.97;;
3022;SDS011;1521;53.584;9.938;2023-09-19T03:21:20;13.27;;;2.63;;
3022;SDS011;1521;53.584;9.938;2023-09-19T03:23:46;7.17;;;2.80;;
3022;SDS011;1521;53.584;9.938;2023-09-19T03:26:12;6.57;;;3.00;;
3022;SDS011;1521;53.584;9.938;2023-09-19T03:28:39;5.77;;;3.13;;
3022;SDS011;1521;53.584;9.938;2023-09-19T03:31:06;7.87;;;2.80;;
3022;SDS011;1521;53.584;9.938;2023-09-19T03:33:32;4.07;;;2.70;;
3022;SDS011;1521;53.584;9.938;2023-09-19T03:35:59;6.30;;;2.70;;
3022;SDS011;1521;53.584;9.938;2023-09-19T03:38:29;7.60;;;3.10;;
3022;SDS011;1521;53.584;9.938;2023-09-19T03:40:54;8.13;;;2.97;;
3022;SDS011;1521;53.584;9.938;2023-09-19T03:43:20;6.57;;;3.00;;
3022;SDS011;1521;53.584;9.938;2023-09-19T03:45:46;11.10;;;3.27;;
3022;SDS011;1521;53.584;9.938;2023-09-19T03:48:11;5.13;;;2.90;;
3022;SDS011;1521;53.584;9.938;2023-09-19T03:50:38;3.77;;;2.97;;
3022;SDS011;1521;53.584;9.938;2023-09-19T03:53:04;6.53;;;3.00;;
3022;SDS011;1521;53.584;9.938;2023-09-19T03:55:32;11.93;;;2.90;;
3022;SDS011;1521;53.584;9.938;2023-09-19T03:57:57;10.40;;;3.67;;
3022;SDS011;1521;53.584;9.938;2023-09-19T04:00:23;9.50;;;3.07;;
3022;SDS011;1521;53.584;9.938;2023-09-19T04:02:51;9.57;;;2.43;;
3022;SDS011;1521;53.584;9.938;2023-09-19T04:05:18;6.33;;;2.80;;
3022;SDS011;1521;53.584;9.938;2023-09-19T04:07:44;5.40;;;2.30;;
3022;SDS011;1521;53.584;9.938;2023-09-19T04:10:09;7.03;;;2.70;;
3022;SDS011;1521;53.584;9.938;2023-09-19T04:12:39;9.00;;;2.70;;
3022;SDS011;1521;53.584;9.938;2023-09-19T04:15:05;7.90;;;2.43;;
3022;SDS011;1521;53.584;9.938;2023-09-19T04:17:31;3.70;;;2.20;;
3022;SDS011;1521;53.584;9.938;2023-09-19T04:19:58;11.20;;;2.90;;
3022;SDS011;1521;53.584;9.938;2023-09-19T04:22:24;5.17;;;1.90;;
3022;SDS011;1521;53.584;9.938;2023-09-19T04:24:49;7.03;;;2.80;;
3022;SDS011;1521;53.584;9.938;2023-09-19T04:27:15;6.90;;;2.43;;
3022;SDS011;1521;53.584;9.938;2023-09-19T04:29:40;9.50;;;2.67;;
3022;SDS011;1521;53.584;9.938;2023-09-19T04:32:09;13.53;;;2.93;;
3022;SDS011;1521;53.584;9.938;2023-09-19T04:34:35;6.00;;;2.13;;
3022;SDS011;1521;53.584;9.938;2023-09-19T04:37:00;11.23;;;2.10;;
3022;SDS011;1521;53.584;9.938;2023-09-19T04:39:27;5.10;;;2.00;;
3022;SDS011;1521;53.584;9.938;2023-09-19T04:41:53;10.20;;;2.43;;
3022;SDS011;1521;53.584;9.938;2023-09-19T04:44:19;5.80;;;2.10;;
3022;SDS011;1521;53.584;9.938;2023-09-19T04:46:46;6.03;;;2.40;;
3022;SDS011;1521;53.584;9.938;2023-09-19T04:49:12;9.37;;;2.57;;
3022;SDS011;1521;53.584;9.938;2023-09-19T04:51:38;7.30;;;2.30;;
3022;SDS011;1521;53.584;9.938;2023-09-19T04:54:04;8.53;;;2.27;;
3022;SDS011;1521;53.584;9.938;2023-09-19T04:56:30;7.90;;;2.40;;
3022;SDS011;1521;53.584;9.938;2023-09-19T04:58:57;8.03;;;2.40;;
3022;SDS011;1521;53.584;9.938;2023-09-19T05:01:25;9.63;;;2.77;;
3022;SDS011;1521;53.584;9.938;2023-09-19T05:03:52;7.77;;;2.17;;
3022;SDS011;1521;53.584;9.938;2023-09-19T05:06:21;5.43;;;2.20;;
3022;SDS011;1521;53.584;9.938;2023-09-19T05:08:47;4.97;;;2.13;;
3022;SDS011;1521;53.584;9.938;2023-09-19T05:11:18;12.60;;;2.63;;
3022;SDS011;1521;53.584;9.938;2023-09-19T05:13:45;11.43;;;2.50;;
3022;SDS011;1521;53.584;9.938;2023-09-19T05:16:11;4.67;;;2.10;;
3022;SDS011;1521;53.584;9.938;2023-09-19T05:18:37;4.53;;;2.13;;
3022;SDS011;1521;53.584;9.938;2023-09-19T05:21:02;7.27;;;2.90;;
3022;SDS011;1521;53.584;9.938;2023-09-19T05:23:28;10.03;;;2.40;;
3022;SDS011;1521;53.584;9.938;2023-09-19T05:25:54;6.10;;;2.47;;
3022;SDS011;1521;53.584;9.938;2023-09-19T05:28:21;6.97;;;2.20;;
3022;SDS011;1521;53.584;9.938;2023-09-19T05:30:47;7.47;;;2.50;;
3022;SDS011;1521;53.584;9.938;2023-09-19T05:33:14;9.50;;;2.63;;
3022;SDS011;1521;53.584;9.938;2023-09-19T05:35:39;8.20;;;2.43;;
3022;SDS011;1521;53.584;9.938;2023-09-19T05:38:06;5.70;;;2.30;;
3022;SDS011;1521;53.584;9.938;2023-09-19T05:40:34;6.20;;;2.43;;
3022;SDS011;1521;53.584;9.938;2023-09-19T05:43:00;11.47;;;3.10;;
3022;SDS011;1521;53.584;9.938;2023-09-19T05:45:27;5.73;;;2.00;;
3022;SDS011;1521;53.584;9.938;2023-09-19T05:47:53;6.60;;;2.20;;
3022;SDS011;1521;53.584;9.938;2023-09-19T05:50:29;9.03;;;2.63;;
3022;SDS011;1521;53.584;9.938;2023-09-19T05:52:54;8.70;;;2.70;;
3022;SDS011;1521;53.584;9.938;2023-09-19T05:55:23;6.80;;;2.30;;
3022;SDS011;1521;53.584;9.938;2023-09-19T05:57:53;8.37;;;2.70;;
3022;SDS011;1521;53.584;9.938;2023-09-19T06:00:22;10.30;;;2.50;;
3022;SDS011;1521;53.584;9.938;2023-09-19T06:02:52;5.13;;;2.60;;
3022;SDS011;1521;53.584;9.938;2023-09-19T06:05:18;8.80;;;2.90;;
3022;SDS011;1521;53.584;9.938;2023-09-19T06:07:44;6.73;;;2.40;;
3022;SDS011;1521;53.584;9.938;2023-09-19T06:10:10;6.27;;;2.40;;
3022;SDS011;1521;53.584;9.938;2023-09-19T06:12:39;8.57;;;3.40;;
3022;SDS011;1521;53.584;9.938;2023-09-19T06:15:05;9.27;;;2.40;;
3022;SDS011;1521;53.584;9.938;2023-09-19T06:17:37;8.30;;;2.70;;
3022;SDS011;1521;53.584;9.938;2023-09-19T06:20:06;10.90;;;2.47;;
3022;SDS011;1521;53.584;9.938;2023-09-19T06:22:39;5.73;;;2.87;;
3022;SDS011;1521;53.584;9.938;2023-09-19T06:25:09;7.53;;;2.77;;
3022;SDS011;1521;53.584;9.938;2023-09-19T06:27:37;8.00;;;2.07;;
3022;SDS011;1521;53.584;9.938;2023-09-19T06:30:08;14.63;;;2.70;;
3022;SDS011;1521;53.584;9.938;2023-09-19T06:32:34;6.40;;;2.57;;
3022;SDS011;1521;53.584;9.938;2023-09-19T06:35:00;10.53;;;2.63;;
3022;SDS011;1521;53.584;9.938;2023-09-19T06:37:27;6.17;;;2.73;;
3022;SDS011;1521;53.584;9.938;2023-09-19T06:39:53;15.33;;;2.90;;
3022;SDS011;1521;53.584;9.938;2023-09-19T06:42:19;6.83;;;2.60;;
3022;SDS011;1521;53.584;9.938;2023-09-19T06:44:44;6.73;;;2.83;;
3022;SDS011;1521;53.584;9.938;2023-09-19T06:47:10;7.80;;;2.60;;
3022;SDS011;1521;53.584;9.938;2023-09-19T06:49:36;8.50;;;2.30;;
3022;SDS011;1521;53.584;9.938;2023-09-19T06:52:01;12.17;;;3.07;;
3022;SDS011;1521;53.584;9.938;2023-09-19T06:54:27;8.57;;;2.50;;
3022;SDS011;1521;53.584;9.938;2023-09-19T06:56:59;9.87;;;2.60;;
3022;SDS011;1521;53.584;9.938;2023-09-19T06:59:24;10.27;;;3.10;;
3022;SDS011;1521;53.584;9.938;2023-09-19T07:01:50;6.13;;;2.43;;
3022;SDS011;1521;53.584;9.938;2023-09-19T07:04:16;12.47;;;2.77;;
3022;SDS011;1521;53.584;9.938;2023-09-19T07:06:44;18.93;;;3.40;;
3022;SDS011;1521;53.584;9.938;2023-09-19T07:09:14;8.70;;;2.77;;
3022;SDS011;1521;53.584;9.938;2023-09-19T07:11:40;10.40;;;2.70;;
3022;SDS011;1521;53.584;9.938;2023-09-19T07:14:06;11.53;;;3.10;;
3022;SDS011;1521;53.584;9.938;2023-09-19T07:16:31;9.60;;;2.87;;
3022;SDS011;1521;53.584;9.938;2023-09-19T07:18:57;9.10;;;3.10;;
3022;SDS011;1521;53.584;9.938;2023-09-19T07:21:23;12.00;;;2.30;;
3022;SDS011;1521;53.584;9.938;2023-09-19T07:23:49;10.97;;;3.10;;
3022;SDS011;1521;53.584;9.938;2023-09-19T07:26:15;10.37;;;3.03;;
3022;SDS011;1521;53.584;9.938;2023-09-19T07:28:41;7.70;;;2.90;;
3022;SDS011;1521;53.584;9.938;2023-09-19T07:31:07;11.53;;;2.40;;
3022;SDS011;1521;53.584;9.938;2023-09-19T07:33:35;8.40;;;2.57;;
3022;SDS011;1521;53.584;9.938;2023-09-19T07:36:01;10.27;;;3.10;;
3022;SDS011;1521;53.584;9.938;2023-09-19T07:38:27;13.63;;;3.10;;
3022;SDS011;1521;53.584;9.938;2023-09-19T07:40:52;6.57;;;2.37;;
3022;SDS011;1521;53.584;9.938;2023-09-19T07:43:18;12.17;;;3.10;;
3022;SDS011;1521;53.584;9.938;2023-09-19T07:45:44;10.13;;;3.27;;
3022;SDS011;1521;53.584;9.938;2023-09-19T07:48:10;18.10;;;3.30;;
3022;SDS011;1521;53.584;9.938;2023-09-19T07:50:39;17.07;;;3.00;;
3022;SDS011;1521;53.584;9.938;2023-09-19T07:53:08;7.50;;;2.93;;
3022;SDS011;1521;53.584;9.938;2023-09-19T07:55:33;8.40;;;3.50;;
3022;SDS011;1521;53.584;9.938;2023-09-19T07:57:59;15.10;;;2.90;;
3022;SDS011;1521;53.584;9.938;2023-09-19T08:00:25;13.67;;;3.20;;
3022;SDS011;1521;53.584;9.938;2023-09-19T08:02:51;8.77;;;3.70;;
3022;SDS011;1521;53.584;9.938;2023-09-19T08:05:19;10.90;;;3.57;;
3022;SDS011;1521;53.584;9.938;2023-09-19T08:07:46;13.67;;;4.40;;
3022;SDS011;1521;53.584;9.938;2023-09-19T08:10:14;10.20;;;4.00;;
3022;SDS011;1521;53.584;9.938;2023-09-19T08:12:41;13.53;;;4.07;;
3022;SDS011;1521;53.584;9.938;2023-09-19T08:15:17;18.63;;;5.07;;
3022;SDS011;1521;53.584;9.938;2023-09-19T08:17:44;14.00;;;3.63;;
3022;SDS011;1521;53.584;9.938;2023-09-19T08:20:10;11.97;;;4.10;;
3022;SDS011;1521;53.584;9.938;2023-09-19T08:22:47;14.77;;;3.90;;
3022;SDS011;1521;53.584;9.938;2023-09-19T08:25:19;12.93;;;4.10;;
3022;SDS011;1521;53.584;9.938;2023-09-19T08:27:48;10.57;;;3.00;;
3022;SDS011;1521;53.584;9.938;2023-09-19T08:30:15;18.13;;;4.57;;
3022;SDS011;1521;53.584;9.938;2023-09-19T08:32:43;11.83;;;3.80;;
3022;SDS011;1521;53.584;9.938;2023-09-19T08:35:09;12.33;;;4.03;;
3022;SDS011;1521;53.584;9.938;2023-09-19T08:37:35;12.53;;;3.60;;
3022;SDS011;1521;53.584;9.938;2023-09-19T08:40:01;13.90;;;3.77;;
3022;SDS011;1521;53.584;9.938;2023-09-19T08:42:27;13.67;;;3.60;;
3022;SDS011;1521;53.584;9.938;2023-09-19T08:44:52;16.53;;;4.47;;
3022;SDS011;1521;53.584;9.938;2023-09-19T08:47:21;12.80;;;4.40;;
3022;SDS011;1521;53.584;9.938;2023-09-19T08:50:01;13.40;;;3.93;;
3022;SDS011;1521;53.584;9.938;2023-09-19T08:52:42;9.43;;;3.47;;
3022;SDS011;1521;53.584;9.938;2023-09-19T08:55:13;15.03;;;3.30;;
3022;SDS011;1521;53.584;9.938;2023-09-19T08:57:45;11.57;;;3.73;;
3022;SDS011;1521;53.584;9.938;2023-09-19T09:00:14;10.93;;;3.40;;
3022;SDS011;1521;53.584;9.938;2023-09-19T09:02:42;9.50;;;3.70;;
3022;SDS011;1521;53.584;9.938;2023-09-19T09:05:09;15.43;;;4.10;;
3022;SDS011;1521;53.584;9.938;2023-09-19T09:07:39;10.03;;;3.30;;
3022;SDS011;1521;53.584;9.938;2023-09-19T09:10:06;5.70;;;3.07;;
3022;SDS011;1521;53.584;9.938;2023-09-19T09:12:32;7.80;;;3.40;;
3022;SDS011;1521;53.584;9.938;2023-09-19T09:15:01;15.00;;;3.67;;
3022;SDS011;1521;53.584;9.938;2023-09-19T09:17:29;17.77;;;3.80;;
3022;SDS011;1521;53.584;9.938;2023-09-19T09:19:55;17.67;;;4.50;;
3022;SDS011;1521;53.584;9.938;2023-09-19T09:22:21;7.80;;;3.17;;
3022;SDS011;1521;53.584;9.938;2023-09-19T09:24:59;17.00;;;4.13;;
3022;SDS011;1521;53.584;9.938;2023-09-19T09:27:29;14.77;;;4.00;;
3022;SDS011;1521;53.584;9.938;2023-09-19T09:29:54;11.13;;;3.00;;
3022;SDS011;1521;53.584;9.938;2023-09-19T09:34:51;11.97;;;3.50;;
3022;SDS011;1521;53.584;9.938;2023-09-19T09:37:18;8.53;;;3.27;;
3022;SDS011;1521;53.584;9.938;2023-09-19T09:39:55;15.60;;;3.67;;
3022;SDS011;1521;53.584;9.938;2023-09-19T09:42:32;9.93;;;3.00;;
3022;SDS011;1521;53.584;9.938;2023-09-19T09:45:13;17.43;;;3.40;;
3022;SDS011;1521;53.584;9.938;2023-09-19T09:47:45;16.00;;;2.80;;
3022;SDS011;1521;53.584;9.938;2023-09-19T09:50:24;16.33;;;3.80;;
3022;SDS011;1521;53.584;9.938;2023-09-19T09:52:55;10.03;;;2.80;;
3022;SDS011;1521;53.584;9.938;2023-09-19T09:55:36;18.40;;;2.93;;
3022;SDS011;1521;53.584;9.938;2023-09-19T09:58:24;9.30;;;3.60;;
3022;SDS011;1521;53.584;9.938;2023-09-19T10:00:57;10.50;;;2.77;;
3022;SDS011;1521;53.584;9.938;2023-09-19T10:03:31;6.73;;;2.33;;
3022;SDS011;1521;53.584;9.938;2023-09-19T10:06:05;10.13;;;2.40;;
3022;SDS011;1521;53.584;9.938;2023-09-19T10:11:45;11.33;;;2.33;;
3022;SDS011;1521;53.584;9.938;2023-09-19T10:14:28;6.87;;;2.43;;
3022;SDS011;1521;53.584;9.938;2023-09-19T10:16:56;11.70;;;2.73;;
3022;SDS011;1521;53.584;9.938;2023-09-19T10:19:29;10.77;;;2.60;;
3022;SDS011;1521;53.584;9.938;2023-09-19T10:22:01;10.20;;;3.40;;
3022;SDS011;1521;53.584;9.938;2023-09-19T10:24:27;9.97;;;2.53;;
3022;SDS011;1521;53.584;9.938;2023-09-19T10:26:56;7.97;;;2.50;;
3022;SDS011;1521;53.584;9.938;2023-09-19T10:29:22;6.40;;;1.83;;
3022;SDS011;1521;53.584;9.938;2023-09-19T10:31:50;13.40;;;2.80;;
3022;SDS011;1521;53.584;9.938;2023-09-19T10:34:18;8.80;;;2.50;;
3022;SDS011;1521;53.584;9.938;2023-09-19T10:36:46;6.70;;;2.40;;
3022;SDS011;1521;53.584;9.938;2023-09-19T10:39:15;11.50;;;2.80;;
3022;SDS011;1521;53.584;9.938;2023-09-19T10:41:49;8.07;;;2.70;;
3022;SDS011;1521;53.584;9.938;2023-09-19T10:44:24;8.10;;;2.60;;
3022;SDS011;1521;53.584;9.938;2023-09-19T10:46:51;5.37;;;2.27;;
3022;SDS011;1521;53.584;9.938;2023-09-19T10:49:18;7.27;;;3.00;;
3022;SDS011;1521;53.584;9.938;2023-09-19T10:51:47;11.23;;;2.97;;
3022;SDS011;1521;53.584;9.938;2023-09-19T10:54:19;8.27;;;2.13;;
3022;SDS011;1521;53.584;9.938;2023-09-19T10:56:51;5.37;;;2.27;;
3022;SDS011;1521;53.584;9.938;2023-09-19T10:59:18;6.67;;;2.17;;
3022;SDS011;1521;53.584;9.938;2023-09-19T11:01:52;13.60;;;2.47;;
3022;SDS011;1521;53.584;9.938;2023-09-19T11:04:35;5.00;;;2.30;;
3022;SDS011;1521;53.584;9.938;2023-09-19T11:07:02;11.10;;;2.67;;
3022;SDS011;1521;53.584;9.938;2023-09-19T11:09:52;7.97;;;2.23;;
3022;SDS011;1521;53.584;9.938;2023-09-19T11:14:54;11.10;;;2.43;;
3022;SDS011;1521;53.584;9.938;2023-09-19T11:30:37;7.43;;;2.20;;
3022;SDS011;1521;53.584;9.938;2023-09-19T11:33:23;9.90;;;2.50;;
3022;SDS011;1521;53.584;9.938;2023-09-19T11:36:10;6.13;;;2.50;;
3022;SDS011;1521;53.584;9.938;2023-09-19T11:46:24;11.23;;;2.10;;
3022;SDS011;1521;53.584;9.938;2023-09-19T11:48:50;8.33;;;2.30;;
3022;SDS011;1521;53.584;9.938;2023-09-19T11:51:20;8.60;;;2.57;;
3022;SDS011;1521;53.584;9.938;2023-09-19T11:53:53;8.83;;;2.97;;
3022;SDS011;1521;53.584;9.938;2023-09-19T11:56:21;9.10;;;2.17;;
3022;SDS011;1521;53.584;9.938;2023-09-19T11:58:50;10.40;;;2.50;;
3022;SDS011;1521;53.584;9.938;2023-09-19T12:01:23;5.63;;;2.33;;
3022;SDS011;1521;53.584;9.938;2023-09-19T12:03:54;9.40;;;2.50;;
3022;SDS011;1521;53.584;9.938;2023-09-19T12:06:25;6.97;;;2.67;;
3022;SDS011;1521;53.584;9.938;2023-09-19T12:08:51;13.70;;;3.13;;
3022;SDS011;1521;53.584;9.938;2023-09-19T12:11:19;10.10;;;2.70;;
3022;SDS011;1521;53.584;9.938;2023-09-19T12:13:48;11.27;;;3.03;;
3022;SDS011;1521;53.584;9.938;2023-09-19T12:16:20;10.90;;;2.90;;
3022;SDS011;1521;53.584;9.938;2023-09-19T12:18:49;10.10;;;2.67;;
3022;SDS011;1521;53.584;9.938;2023-09-19T12:26:30;12.90;;;2.60;;
3022;SDS011;1521;53.584;9.938;2023-09-19T12:29:04;6.93;;;2.60;;
3022;SDS011;1521;53.584;9.938;2023-09-19T12:31:30;9.33;;;2.93;;
3022;SDS011;1521;53.584;9.938;2023-09-19T12:34:01;7.50;;;2.67;;
3022;SDS011;1521;53.584;9.938;2023-09-19T12:36:27;8.87;;;2.83;;
3022;SDS011;1521;53.584;9.938;2023-09-19T12:38:56;10.93;;;2.80;;
3022;SDS011;1521;53.584;9.938;2023-09-19T12:41:25;7.77;;;2.60;;
3022;SDS011;1521;53.584;9.938;2023-09-19T12:43:54;10.90;;;3.50;;
3022;SDS011;1521;53.584;9.938;2023-09-19T12:46:23;6.50;;;3.07;;
3022;SDS011;1521;53.584;9.938;2023-09-19T12:49:14;11.00;;;3.20;;
3022;SDS011;1521;53.584;9.938;2023-09-19T12:51:47;6.93;;;2.40;;
3022;SDS011;1521;53.584;9.938;2023-09-19T12:54:14;13.07;;;3.70;;
3022;SDS011;1521;53.584;9.938;2023-09-19T12:56:42;14.90;;;3.00;;
3022;SDS011;1521;53.584;9.938;2023-09-19T12:59:13;10.30;;;2.80;;
3022;SDS011;1521;53.584;9.938;2023-09-19T13:01:40;7.10;;;2.30;;
3022;SDS011;1521;53.584;9.938;2023-09-19T13:04:12;11.17;;;2.90;;
3022;SDS011;1521;53.584;9.938;2023-09-19T13:06:48;9.73;;;2.83;;
3022;SDS011;1521;53.584;9.938;2023-09-19T13:09:18;7.70;;;3.00;;
3022;SDS011;1521;53.584;9.938;2023-09-19T13:11:45;9.37;;;2.73;;
3022;SDS011;1521;53.584;9.938;2023-09-19T13:17:03;7.53;;;2.50;;
3022;SDS011;1521;53.584;9.938;2023-09-19T13:19:47;9.43;;;2.63;;
3022;SDS011;1521;53.584;9.938;2023-09-19T13:25:03;10.00;;;2.97;;
3022;SDS011;1521;53.584;9.938;2023-09-19T13:27:31;8.87;;;2.63;;
3022;SDS011;1521;53.584;9.938;2023-09-19T13:29:58;10.90;;;3.10;;
3022;SDS011;1521;53.584;9.938;2023-09-19T13:32:25;13.60;;;2.70;;
3022;SDS011;1521;53.584;9.938;2023-09-19T13:34:51;14.63;;;2.63;;
3022;SDS011;1521;53.584;9.938;2023-09-19T13:37:17;7.10;;;2.90;;
3022;SDS011;1521;53.584;9.938;2023-09-19T13:39:43;9.27;;;2.87;;
3022;SDS011;1521;53.584;9.938;2023-09-19T13:42:12;9.33;;;2.57;;
3022;SDS011;1521;53.584;9.938;2023-09-19T13:44:38;10.00;;;2.67;;
3022;SDS011;1521;53.584;9.938;2023-09-19T13:47:06;10.03;;;3.23;;
3022;SDS011;1521;53.584;9.938;2023-09-19T13:49:34;10.63;;;2.77;;
3022;SDS011;1521;53.584;9.938;2023-09-19T13:52:01;15.13;;;2.90;;
3022;SDS011;1521;53.584;9.938;2023-09-19T13:54:30;8.93;;;2.43;;
3022;SDS011;1521;53.584;9.938;2023-09-19T13:56:56;10.37;;;3.33;;
3022;SDS011;1521;53.584;9.938;2023-09-19T13:59:21;10.87;;;2.80;;
3022;SDS011;1521;53.584;9.938;2023-09-19T14:01:48;12.77;;;2.60;;
3022;SDS011;1521;53.584;9.938;2023-09-19T14:04:15;15.00;;;2.97;;
3022;SDS011;1521;53.584;9.938;2023-09-19T14:06:42;9.67;;;2.60;;
3022;SDS011;1521;53.584;9.938;2023-09-19T14:09:08;13.83;;;3.00;;
3022;SDS011;1521;53.584;9.938;2023-09-19T14:11:35;8.07;;;3.07;;
3022;SDS011;1521;53.584;9.938;2023-09-19T14:14:01;8.80;;;2.60;;
3022;SDS011;1521;53.584;9.938;2023-09-19T14:16:27;8.27;;;2.33;;
3022;SDS011;1521;53.584;9.938;2023-09-19T14:18:55;13.20;;;3.37;;
3022;SDS011;1521;53.584;9.938;2023-09-19T14:21:25;8.20;;;2.60;;
3022;SDS011;1521;53.584;9.938;2023-09-19T14:23:51;6.47;;;2.50;;
3022;SDS011;1521;53.584;9.938;2023-09-19T14:26:16;11.83;;;2.50;;
3022;SDS011;1521;53.584;9.938;2023-09-19T14:28:43;10.93;;;2.77;;
3022;SDS011;1521;53.584;9.938;2023-09-19T14:31:10;9.60;;;2.63;;
3022;SDS011;1521;53.584;9.938;2023-09-19T14:33:36;8.77;;;2.67;;
3022;SDS011;1521;53.584;9.938;2023-09-19T14:36:06;11.03;;;2.97;;
3022;SDS011;1521;53.584;9.938;2023-09-19T14:38:33;9.00;;;2.63;;
3022;SDS011;1521;53.584;9.938;2023-09-19T14:41:04;9.47;;;3.20;;
3022;SDS011;1521;53.584;9.938;2023-09-19T14:43:31;6.97;;;2.50;;
3022;SDS011;1521;53.584;9.938;2023-09-19T14:45:57;9.07;;;2.50;;
3022;SDS011;1521;53.584;9.938;2023-09-19T14:48:27;11.27;;;2.47;;
3022;SDS011;1521;53.584;9.938;2023-09-19T14:50:53;6.70;;;2.57;;
3022;SDS011;1521;53.584;9.938;2023-09-19T14:53:20;13.93;;;3.10;;
3022;SDS011;1521;53.584;9.938;2023-09-19T14:55:46;8.23;;;2.70;;
3022;SDS011;1521;53.584;9.938;2023-09-19T14:58:13;11.23;;;2.50;;
3022;SDS011;1521;53.584;9.938;2023-09-19T15:00:39;11.93;;;2.57;;
3022;SDS011;1521;53.584;9.938;2023-09-19T15:03:05;11.00;;;3.43;;
3022;SDS011;1521;53.584;9.938;2023-09-19T15:05:30;12.93;;;3.30;;
3022;SDS011;1521;53.584;9.938;2023-09-19T15:07:56;9.10;;;3.50;;
3022;SDS011;1521;53.584;9.938;2023-09-19T15:10:23;9.07;;;2.80;;
3022;SDS011;1521;53.584;9.938;2023-09-19T15:12:49;11.40;;;3.17;;
3022;SDS011;1521;53.584;9.938;2023-09-19T15:15:14;14.80;;;2.60;;
3022;SDS011;1521;53.584;9.938;2023-09-19T15:17:40;6.00;;;2.13;;
3022;SDS011;1521;53.584;9.938;2023-09-19T15:20:06;6.90;;;2.77;;
3022;SDS011;1521;53.584;9.938;2023-09-19T15:22:33;10.77;;;3.07;;
3022;SDS011;1521;53.584;9.938;2023-09-19T15:24:59;6.20;;;2.40;;
3022;SDS011;1521;53.584;9.938;2023-09-19T15:27:26;9.07;;;2.63;;
3022;SDS011;1521;53.584;9.938;2023-09-19T15:29:53;13.03;;;2.70;;
3022;SDS011;1521;53.584;9.938;2023-09-19T15:32:19;13.03;;;2.93;;
3022;SDS011;1521;53.584;9.938;2023-09-19T15:34:44;14.50;;;2.70;;
3022;SDS011;1521;53.584;9.938;2023-09-19T15:37:12;6.50;;;2.67;;
3022;SDS011;1521;53.584;9.938;2023-09-19T15:39:37;9.60;;;2.93;;
3022;SDS011;1521;53.584;9.938;2023-09-19T15:42:03;8.03;;;2.70;;
3022;SDS011;1521;53.584;9.938;2023-09-19T15:44:28;7.47;;;2.73;;
3022;SDS011;1521;53.584;9.938;2023-09-19T15:46:54;8.20;;;2.97;;
3022;SDS011;1521;53.584;9.938;2023-09-19T15:49:20;13.47;;;3.13;;
3022;SDS011;1521;53.584;9.938;2023-09-19T15:51:46;6.00;;;3.20;;
3022;SDS011;1521;53.584;9.938;2023-09-19T15:54:14;16.90;;;3.23;;
3022;SDS011;1521;53.584;9.938;2023-09-19T15:56:45;14.10;;;3.30;;
3022;SDS011;1521;53.584;9.938;2023-09-19T15:59:11;10.57;;;3.30;;
3022;SDS011;1521;53.584;9.938;2023-09-19T16:01:38;11.70;;;2.73;;
3022;SDS011;1521;53.584;9.938;2023-09-19T16:04:08;9.53;;;3.00;;
3022;SDS011;1521;53.584;9.938;2023-09-19T16:06:34;9.10;;;3.20;;
3022;SDS011;1521;53.584;9.938;2023-09-19T16:09:01;7.70;;;3.13;;
3022;SDS011;1521;53.584;9.938;2023-09-19T16:11:29;12.13;;;2.90;;